createdAt,value
2019-06-01T00:04:34.000Z,1025.69
2019-06-01T00:09:21.000Z,1025.67
2019-06-01T00:14:08.000Z,1025.67
2019-06-01T00:18:56.000Z,1025.65
2019-06-01T00:23:43.000Z,1025.64
2019-06-01T00:28:30.000Z,1025.63
2019-06-01T00:33:17.000Z,1025.64
2019-06-01T00:38:05.000Z,1025.68
2019-06-01T00:42:52.000Z,1025.65
2019-06-01T00:47:39.000Z,1025.62
2019-06-01T00:52:27.000Z,1025.53
2019-06-01T00:57:14.000Z,1025.51
2019-06-01T01:02:01.000Z,1025.47
2019-06-01T01:06:48.000Z,1025.47
2019-06-01T01:11:35.000Z,1025.50
2019-06-01T01:16:22.000Z,1025.45
2019-06-01T01:21:10.000Z,1025.49
2019-06-01T01:25:56.000Z,1025.42
2019-06-01T01:30:43.000Z,1025.45
2019-06-01T01:35:30.000Z,1025.49
2019-06-01T01:40:17.000Z,1025.49
2019-06-01T01:45:05.000Z,1025.54
2019-06-01T01:49:53.000Z,1025.56
2019-06-01T01:54:39.000Z,1025.50
2019-06-01T01:59:27.000Z,1025.51
2019-06-01T02:04:13.000Z,1025.36
2019-06-01T02:08:59.000Z,1025.42
2019-06-01T02:13:47.000Z,1025.36
2019-06-01T02:18:34.000Z,1025.43
2019-06-01T02:23:23.000Z,1025.51
2019-06-01T02:28:08.000Z,1025.41
2019-06-01T02:32:56.000Z,1025.48
2019-06-01T02:37:43.000Z,1025.38
2019-06-01T02:42:31.000Z,1025.37
2019-06-01T02:47:18.000Z,1025.47
2019-06-01T02:52:05.000Z,1025.34
2019-06-01T02:56:52.000Z,1025.41
2019-06-01T03:01:40.000Z,1025.38
2019-06-01T03:06:28.000Z,1025.41
2019-06-01T03:11:15.000Z,1025.46
2019-06-01T03:16:04.000Z,1025.36
2019-06-01T03:20:51.000Z,1025.40
2019-06-01T03:25:37.000Z,1025.44
2019-06-01T03:30:25.000Z,1025.40
2019-06-01T03:35:12.000Z,1025.43
2019-06-01T03:40:00.000Z,1025.33
2019-06-01T03:44:47.000Z,1025.31
2019-06-01T03:49:37.000Z,1025.35
2019-06-01T03:54:24.000Z,1025.44
2019-06-01T03:59:11.000Z,1025.36
2019-06-01T04:03:58.000Z,1025.38
2019-06-01T04:08:46.000Z,1025.42
2019-06-01T04:13:33.000Z,1025.47
2019-06-01T04:23:10.000Z,1025.55
2019-06-01T04:27:57.000Z,1025.57
2019-06-01T04:32:47.000Z,1025.53
2019-06-01T04:37:33.000Z,1025.54
2019-06-01T04:42:21.000Z,1025.53
2019-06-01T04:47:11.000Z,1025.56
2019-06-01T04:51:58.000Z,1025.62
2019-06-01T04:56:48.000Z,1025.64
2019-06-01T05:01:35.000Z,1025.64
2019-06-01T05:02:32.000Z,1025.68
2019-06-01T05:03:31.000Z,1025.70
2019-06-01T05:04:30.000Z,1025.64
2019-06-01T05:05:28.000Z,1025.68
2019-06-01T05:06:27.000Z,1025.59
2019-06-01T05:07:26.000Z,1025.65
2019-06-01T05:08:26.000Z,1025.70
2019-06-01T05:09:22.000Z,1025.60
2019-06-01T05:10:21.000Z,1025.69
2019-06-01T05:11:21.000Z,1025.57
2019-06-01T05:12:18.000Z,1025.65
2019-06-01T05:13:18.000Z,1025.58
2019-06-01T05:14:16.000Z,1025.60
2019-06-01T05:15:15.000Z,1025.66
2019-06-01T05:16:14.000Z,1025.62
2019-06-01T05:17:12.000Z,1025.58
2019-06-01T05:18:10.000Z,1025.58
2019-06-01T05:20:07.000Z,1025.54
2019-06-01T05:21:06.000Z,1025.60
2019-06-01T05:23:10.000Z,1025.51
2019-06-01T05:24:02.000Z,1025.46
2019-06-01T05:25:01.000Z,1025.53
2019-06-01T05:26:00.000Z,1025.56
2019-06-01T05:26:59.000Z,1025.56
2019-06-01T05:27:57.000Z,1025.59
2019-06-01T05:28:55.000Z,1025.56
2019-06-01T05:29:54.000Z,1025.50
2019-06-01T05:30:54.000Z,1025.54
2019-06-01T05:31:54.000Z,1025.55
2019-06-01T05:32:50.000Z,1025.51
2019-06-01T05:33:49.000Z,1025.50
2019-06-01T05:34:48.000Z,1025.54
2019-06-01T05:35:47.000Z,1025.53
2019-06-01T05:36:46.000Z,1025.53
2019-06-01T05:37:44.000Z,1025.53
2019-06-01T05:38:42.000Z,1025.49
2019-06-01T05:39:42.000Z,1025.53
2019-06-01T05:40:39.000Z,1025.46
2019-06-01T05:41:38.000Z,1025.49
2019-06-01T05:42:38.000Z,1025.54
2019-06-01T05:43:35.000Z,1025.47
2019-06-01T05:44:33.000Z,1025.50
2019-06-01T05:45:32.000Z,1025.49
2019-06-01T05:46:32.000Z,1025.52
2019-06-01T05:47:29.000Z,1025.44
2019-06-01T05:48:28.000Z,1025.46
2019-06-01T05:49:28.000Z,1025.46
2019-06-01T05:50:25.000Z,1025.43
2019-06-01T05:51:25.000Z,1025.43
2019-06-01T05:52:24.000Z,1025.50
2019-06-01T05:53:21.000Z,1025.46
2019-06-01T05:54:19.000Z,1025.45
2019-06-01T05:55:19.000Z,1025.43
2019-06-01T05:56:17.000Z,1025.44
2019-06-01T05:57:17.000Z,1025.53
2019-06-01T05:58:14.000Z,1025.55
2019-06-01T06:01:10.000Z,1025.56
2019-06-01T06:02:09.000Z,1025.52
2019-06-01T06:04:06.000Z,1025.58
2019-06-01T06:05:05.000Z,1025.59
2019-06-01T06:06:04.000Z,1025.56
2019-06-01T06:07:04.000Z,1025.57
2019-06-01T06:08:02.000Z,1025.58
2019-06-01T06:09:00.000Z,1025.63
2019-06-01T06:10:00.000Z,1025.54
2019-06-01T06:10:58.000Z,1025.62
2019-06-01T06:11:57.000Z,1025.58
2019-06-01T06:12:55.000Z,1025.62
2019-06-01T06:13:54.000Z,1025.62
2019-06-01T06:14:52.000Z,1025.57
2019-06-01T06:15:51.000Z,1025.60
2019-06-01T06:16:50.000Z,1025.59
2019-06-01T06:17:48.000Z,1025.56
2019-06-01T06:18:47.000Z,1025.62
2019-06-01T06:19:47.000Z,1025.67
2019-06-01T06:20:45.000Z,1025.63
2019-06-01T06:21:44.000Z,1025.63
2019-06-01T06:22:42.000Z,1025.70
2019-06-01T06:23:41.000Z,1025.58
2019-06-01T06:24:41.000Z,1025.71
2019-06-01T06:25:39.000Z,1025.68
2019-06-01T06:26:37.000Z,1025.65
2019-06-01T06:27:36.000Z,1025.69
2019-06-01T06:28:35.000Z,1025.63
2019-06-01T06:29:35.000Z,1025.67
2019-06-01T06:30:32.000Z,1025.58
2019-06-01T06:31:30.000Z,1025.63
2019-06-01T06:32:29.000Z,1025.65
2019-06-01T06:33:28.000Z,1025.63
2019-06-01T06:34:28.000Z,1025.64
2019-06-01T06:35:26.000Z,1025.63
2019-06-01T06:36:24.000Z,1025.66
2019-06-01T06:37:23.000Z,1025.56
2019-06-01T06:38:22.000Z,1025.53
2019-06-01T06:39:20.000Z,1025.63
2019-06-01T06:40:19.000Z,1025.70
2019-06-01T06:41:19.000Z,1025.67
2019-06-01T06:42:17.000Z,1025.65
2019-06-01T06:43:15.000Z,1025.56
2019-06-01T06:44:14.000Z,1025.63
2019-06-01T06:45:13.000Z,1025.65
2019-06-01T06:46:11.000Z,1025.59
2019-06-01T06:47:10.000Z,1025.62
2019-06-01T06:48:10.000Z,1025.67
2019-06-01T06:50:07.000Z,1025.68
2019-06-01T06:51:05.000Z,1025.65
2019-06-01T06:52:04.000Z,1025.70
2019-06-01T06:53:03.000Z,1025.68
2019-06-01T06:54:02.000Z,1025.79
2019-06-01T06:55:02.000Z,1025.73
2019-06-01T06:55:59.000Z,1025.65
2019-06-01T06:56:59.000Z,1025.70
2019-06-01T06:57:58.000Z,1025.79
2019-06-01T06:58:56.000Z,1025.73
2019-06-01T06:59:54.000Z,1025.75
2019-06-01T07:00:53.000Z,1025.69
2019-06-01T07:01:52.000Z,1025.70
2019-06-01T07:02:51.000Z,1025.70
2019-06-01T07:03:50.000Z,1025.74
2019-06-01T07:04:49.000Z,1025.69
2019-06-01T07:05:47.000Z,1025.72
2019-06-01T07:06:47.000Z,1025.69
2019-06-01T07:07:45.000Z,1025.66
2019-06-01T07:08:44.000Z,1025.69
2019-06-01T07:09:41.000Z,1025.64
2019-06-01T07:10:41.000Z,1025.64
2019-06-01T07:11:40.000Z,1025.70
2019-06-01T07:12:39.000Z,1025.66
2019-06-01T07:13:36.000Z,1025.58
2019-06-01T07:14:36.000Z,1025.65
2019-06-01T07:15:34.000Z,1025.65
2019-06-01T07:16:33.000Z,1025.57
2019-06-01T07:17:31.000Z,1025.64
2019-06-01T07:18:31.000Z,1025.70
2019-06-01T07:19:29.000Z,1025.64
2019-06-01T07:20:27.000Z,1025.63
2019-06-01T07:21:28.000Z,1025.67
2019-06-01T07:22:26.000Z,1025.62
2019-06-01T07:23:24.000Z,1025.69
2019-06-01T07:24:23.000Z,1025.62
2019-06-01T07:25:21.000Z,1025.67
2019-06-01T07:26:19.000Z,1025.62
2019-06-01T07:27:19.000Z,1025.62
2019-06-01T07:28:18.000Z,1025.59
2019-06-01T07:29:19.000Z,1025.64
2019-06-01T07:30:15.000Z,1025.62
2019-06-01T07:31:14.000Z,1025.66
2019-06-01T07:32:12.000Z,1025.60
2019-06-01T07:33:10.000Z,1025.60
2019-06-01T07:35:08.000Z,1025.66
2019-06-01T07:36:06.000Z,1025.59
2019-06-01T07:37:05.000Z,1025.59
2019-06-01T07:38:08.000Z,1025.63
2019-06-01T07:39:04.000Z,1025.63
2019-06-01T07:40:04.000Z,1025.60
2019-06-01T07:41:03.000Z,1025.56
2019-06-01T07:42:03.000Z,1025.47
2019-06-01T07:43:01.000Z,1025.52
2019-06-01T07:43:57.000Z,1025.57
2019-06-01T07:44:59.000Z,1025.52
2019-06-01T07:45:56.000Z,1025.57
2019-06-01T07:46:55.000Z,1025.56
2019-06-01T07:47:53.000Z,1025.48
2019-06-01T07:48:52.000Z,1025.47
2019-06-01T07:49:51.000Z,1025.49
2019-06-01T07:50:50.000Z,1025.49
2019-06-01T07:51:48.000Z,1025.44
2019-06-01T07:52:48.000Z,1025.55
2019-06-01T07:53:46.000Z,1025.57
2019-06-01T07:54:45.000Z,1025.53
2019-06-01T07:55:44.000Z,1025.52
2019-06-01T07:56:43.000Z,1025.53
2019-06-01T07:57:42.000Z,1025.51
2019-06-01T07:58:40.000Z,1025.46
2019-06-01T08:00:38.000Z,1025.48
2019-06-01T08:02:36.000Z,1025.43
2019-06-01T08:04:33.000Z,1025.52
2019-06-01T08:05:31.000Z,1025.45
2019-06-01T08:06:30.000Z,1025.53
2019-06-01T08:07:30.000Z,1025.48
2019-06-01T08:08:27.000Z,1025.40
2019-06-01T08:09:26.000Z,1025.47
2019-06-01T08:10:28.000Z,1025.45
2019-06-01T08:11:24.000Z,1025.41
2019-06-01T08:12:23.000Z,1025.47
2019-06-01T08:13:20.000Z,1025.45
2019-06-01T08:14:19.000Z,1025.46
2019-06-01T08:15:17.000Z,1025.48
2019-06-01T08:16:17.000Z,1025.45
2019-06-01T08:17:15.000Z,1025.47
2019-06-01T08:20:10.000Z,1025.37
2019-06-01T08:21:09.000Z,1025.40
2019-06-01T08:23:07.000Z,1025.44
2019-06-01T08:24:05.000Z,1025.40
2019-06-01T08:25:06.000Z,1025.33
2019-06-01T08:26:04.000Z,1025.34
2019-06-01T08:27:01.000Z,1025.37
2019-06-01T08:28:00.000Z,1025.29
2019-06-01T08:28:59.000Z,1025.33
2019-06-01T08:29:57.000Z,1025.32
2019-06-01T08:30:57.000Z,1025.34
2019-06-01T08:31:54.000Z,1025.31
2019-06-01T08:32:53.000Z,1025.26
2019-06-01T08:33:52.000Z,1025.27
2019-06-01T08:34:52.000Z,1025.23
2019-06-01T08:35:52.000Z,1025.30
2019-06-01T08:36:48.000Z,1025.25
2019-06-01T08:37:46.000Z,1025.26
2019-06-01T08:38:45.000Z,1025.20
2019-06-01T08:39:45.000Z,1025.24
2019-06-01T08:40:43.000Z,1025.23
2019-06-01T08:41:41.000Z,1025.27
2019-06-01T08:42:40.000Z,1025.27
2019-06-01T08:44:39.000Z,1025.20
2019-06-01T08:45:37.000Z,1025.24
2019-06-01T08:46:35.000Z,1025.23
2019-06-01T08:47:34.000Z,1025.16
2019-06-01T08:48:34.000Z,1025.21
2019-06-01T08:49:32.000Z,1025.17
2019-06-01T08:50:30.000Z,1025.17
2019-06-01T08:51:29.000Z,1025.24
2019-06-01T08:52:27.000Z,1025.14
2019-06-01T08:53:26.000Z,1025.21
2019-06-01T08:54:25.000Z,1025.15
2019-06-01T08:55:24.000Z,1025.21
2019-06-01T08:56:22.000Z,1025.23
2019-06-01T08:57:21.000Z,1025.16
2019-06-01T08:58:20.000Z,1025.16
2019-06-01T08:59:20.000Z,1025.17
2019-06-01T09:00:17.000Z,1025.13
2019-06-01T09:01:16.000Z,1025.17
2019-06-01T09:02:15.000Z,1025.20
2019-06-01T09:03:15.000Z,1025.08
2019-06-01T09:04:12.000Z,1025.13
2019-06-01T09:06:09.000Z,1025.14
2019-06-01T09:08:07.000Z,1025.14
2019-06-01T09:09:05.000Z,1025.09
2019-06-01T09:10:05.000Z,1025.19
2019-06-01T09:12:04.000Z,1025.11
2019-06-01T09:13:01.000Z,1025.07
2019-06-01T09:14:01.000Z,1025.06
2019-06-01T09:15:00.000Z,1025.02
2019-06-01T09:15:59.000Z,1025.03
2019-06-01T09:16:57.000Z,1025.05
2019-06-01T09:17:55.000Z,1024.99
2019-06-01T09:18:56.000Z,1025.01
2019-06-01T09:19:52.000Z,1025.03
2019-06-01T09:20:51.000Z,1025.02
2019-06-01T09:21:50.000Z,1025.04
2019-06-01T09:22:48.000Z,1025.01
2019-06-01T09:23:47.000Z,1025.03
2019-06-01T09:24:45.000Z,1024.98
2019-06-01T09:25:44.000Z,1024.97
2019-06-01T09:26:44.000Z,1024.95
2019-06-01T09:27:41.000Z,1025.02
2019-06-01T09:28:40.000Z,1025.02
2019-06-01T09:29:40.000Z,1024.97
2019-06-01T09:30:37.000Z,1024.91
2019-06-01T09:31:36.000Z,1024.90
2019-06-01T09:32:35.000Z,1024.95
2019-06-01T09:33:34.000Z,1024.92
2019-06-01T09:34:32.000Z,1024.93
2019-06-01T09:35:30.000Z,1024.92
2019-06-01T09:36:29.000Z,1024.91
2019-06-01T09:37:28.000Z,1024.81
2019-06-01T09:38:26.000Z,1024.86
2019-06-01T09:39:25.000Z,1024.86
2019-06-01T09:40:24.000Z,1024.83
2019-06-01T09:41:22.000Z,1024.77
2019-06-01T09:42:22.000Z,1024.93
2019-06-01T09:43:21.000Z,1024.81
2019-06-01T09:44:19.000Z,1024.88
2019-06-01T09:45:19.000Z,1024.81
2019-06-01T09:46:18.000Z,1024.83
2019-06-01T09:48:16.000Z,1024.80
2019-06-01T09:49:14.000Z,1024.85
2019-06-01T09:51:12.000Z,1024.77
2019-06-01T09:53:10.000Z,1024.78
2019-06-01T09:54:09.000Z,1024.71
2019-06-01T09:56:05.000Z,1024.76
2019-06-01T09:57:04.000Z,1024.72
2019-06-01T09:58:04.000Z,1024.71
2019-06-01T09:59:02.000Z,1024.77
2019-06-01T10:00:59.000Z,1024.69
2019-06-01T10:02:57.000Z,1024.80
2019-06-01T10:04:53.000Z,1024.81
2019-06-01T10:06:51.000Z,1024.77
2019-06-01T10:08:49.000Z,1024.75
2019-06-01T10:10:45.000Z,1024.81
2019-06-01T10:12:42.000Z,1024.80
2019-06-01T10:14:41.000Z,1024.71
2019-06-01T10:16:37.000Z,1024.70
2019-06-01T10:17:41.000Z,1024.67
2019-06-01T10:18:35.000Z,1024.64
2019-06-01T10:19:34.000Z,1024.64
2019-06-01T10:20:34.000Z,1024.60
2019-06-01T10:21:31.000Z,1024.60
2019-06-01T10:22:29.000Z,1024.65
2019-06-01T10:23:28.000Z,1024.59
2019-06-01T10:24:27.000Z,1024.60
2019-06-01T10:25:26.000Z,1024.64
2019-06-01T10:26:25.000Z,1024.65
2019-06-01T10:27:23.000Z,1024.51
2019-06-01T10:29:21.000Z,1024.51
2019-06-01T10:37:11.000Z,1024.56
2019-06-01T10:38:10.000Z,1024.47
2019-06-01T10:40:07.000Z,1024.47
2019-06-01T10:41:06.000Z,1024.61
2019-06-01T10:42:04.000Z,1024.48
2019-06-01T10:43:02.000Z,1024.46
2019-06-01T10:44:01.000Z,1024.50
2019-06-01T10:45:00.000Z,1024.43
2019-06-01T10:45:58.000Z,1024.41
2019-06-01T10:46:57.000Z,1024.32
2019-06-01T10:47:56.000Z,1024.44
2019-06-01T10:48:54.000Z,1024.36
2019-06-01T10:49:54.000Z,1024.31
2019-06-01T10:50:52.000Z,1024.38
2019-06-01T10:51:50.000Z,1024.37
2019-06-01T10:52:49.000Z,1024.36
2019-06-01T10:53:47.000Z,1024.40
2019-06-01T10:54:47.000Z,1024.28
2019-06-01T10:55:45.000Z,1024.37
2019-06-01T10:56:44.000Z,1024.26
2019-06-01T10:57:43.000Z,1024.36
2019-06-01T10:58:41.000Z,1024.40
2019-06-01T10:59:40.000Z,1024.39
2019-06-01T11:00:39.000Z,1024.29
2019-06-01T11:01:39.000Z,1024.34
2019-06-01T11:02:38.000Z,1024.27
2019-06-01T11:03:36.000Z,1024.26
2019-06-01T11:04:34.000Z,1024.21
2019-06-01T11:05:33.000Z,1024.31
2019-06-01T11:06:32.000Z,1024.27
2019-06-01T11:07:31.000Z,1024.25
2019-06-01T11:08:28.000Z,1024.22
2019-06-01T11:09:27.000Z,1024.26
2019-06-01T11:10:26.000Z,1024.22
2019-06-01T11:11:25.000Z,1024.19
2019-06-01T11:12:24.000Z,1024.23
2019-06-01T11:13:22.000Z,1024.20
2019-06-01T11:14:20.000Z,1024.16
2019-06-01T11:15:20.000Z,1024.14
2019-06-01T11:16:18.000Z,1024.12
2019-06-01T11:17:17.000Z,1024.12
2019-06-01T11:18:15.000Z,1024.06
2019-06-01T11:19:14.000Z,1024.06
2019-06-01T11:20:13.000Z,1024.14
2019-06-01T11:21:11.000Z,1024.02
2019-06-01T11:23:08.000Z,1024.01
2019-06-01T11:24:07.000Z,1024.02
2019-06-01T11:25:06.000Z,1024.03
2019-06-01T11:26:04.000Z,1023.99
2019-06-01T11:27:04.000Z,1023.94
2019-06-01T11:29:00.000Z,1023.94
2019-06-01T11:30:58.000Z,1023.92
2019-06-01T11:32:55.000Z,1023.91
2019-06-01T11:33:54.000Z,1023.83
2019-06-01T11:34:54.000Z,1023.92
2019-06-01T11:35:52.000Z,1023.86
2019-06-01T11:36:50.000Z,1023.85
2019-06-01T11:37:50.000Z,1023.84
2019-06-01T11:38:49.000Z,1023.83
2019-06-01T11:39:47.000Z,1023.85
2019-06-01T11:40:45.000Z,1023.78
2019-06-01T11:41:45.000Z,1023.77
2019-06-01T11:42:43.000Z,1023.75
2019-06-01T11:43:42.000Z,1023.83
2019-06-01T11:44:41.000Z,1023.80
2019-06-01T11:45:39.000Z,1023.81
2019-06-01T11:46:38.000Z,1023.72
2019-06-01T11:47:37.000Z,1023.68
2019-06-01T11:48:36.000Z,1023.68
2019-06-01T11:49:35.000Z,1023.77
2019-06-01T11:50:33.000Z,1023.73
2019-06-01T11:51:32.000Z,1023.74
2019-06-01T11:52:32.000Z,1023.66
2019-06-01T11:53:30.000Z,1023.66
2019-06-01T11:54:29.000Z,1023.62
2019-06-01T11:55:28.000Z,1023.60
2019-06-01T11:56:25.000Z,1023.62
2019-06-01T11:57:25.000Z,1023.54
2019-06-01T11:58:24.000Z,1023.54
2019-06-01T12:01:18.000Z,1023.59
2019-06-01T12:02:17.000Z,1023.55
2019-06-01T12:04:15.000Z,1023.54
2019-06-01T12:05:14.000Z,1023.44
2019-06-01T12:06:13.000Z,1023.53
2019-06-01T12:07:11.000Z,1023.39
2019-06-01T12:09:08.000Z,1023.42
2019-06-01T12:10:08.000Z,1023.42
2019-06-01T12:11:07.000Z,1023.37
2019-06-01T12:12:05.000Z,1023.38
2019-06-01T12:13:05.000Z,1023.35
2019-06-01T12:14:02.000Z,1023.30
2019-06-01T12:15:01.000Z,1023.30
2019-06-01T12:16:00.000Z,1023.34
2019-06-01T12:16:59.000Z,1023.27
2019-06-01T12:17:57.000Z,1023.32
2019-06-01T12:18:55.000Z,1023.28
2019-06-01T12:19:54.000Z,1023.30
2019-06-01T12:20:52.000Z,1023.31
2019-06-01T12:21:51.000Z,1023.29
2019-06-01T12:22:50.000Z,1023.24
2019-06-01T12:23:49.000Z,1023.28
2019-06-01T12:24:48.000Z,1023.27
2019-06-01T12:25:46.000Z,1023.25
2019-06-01T12:26:46.000Z,1023.26
2019-06-01T12:27:44.000Z,1023.13
2019-06-01T12:28:42.000Z,1023.16
2019-06-01T12:29:42.000Z,1023.13
2019-06-01T12:31:38.000Z,1023.09
2019-06-01T12:33:36.000Z,1023.19
2019-06-01T12:34:36.000Z,1023.09
2019-06-01T12:35:34.000Z,1023.08
2019-06-01T12:36:33.000Z,1023.12
2019-06-01T12:37:32.000Z,1023.10
2019-06-01T12:38:31.000Z,1023.14
2019-06-01T12:39:28.000Z,1023.12
2019-06-01T12:40:27.000Z,1023.10
2019-06-01T12:41:27.000Z,1023.09
2019-06-01T12:42:26.000Z,1023.03
2019-06-01T12:43:23.000Z,1023.06
2019-06-01T12:44:22.000Z,1023.07
2019-06-01T12:45:22.000Z,1023.07
2019-06-01T12:46:21.000Z,1023.05
2019-06-01T12:47:18.000Z,1023.01
2019-06-01T12:48:17.000Z,1023.01
2019-06-01T12:49:16.000Z,1023.02
2019-06-01T12:50:15.000Z,1023.01
2019-06-01T12:51:13.000Z,1022.96
2019-06-01T12:52:12.000Z,1022.93
2019-06-01T12:53:10.000Z,1022.86
2019-06-01T12:55:08.000Z,1022.89
2019-06-01T12:56:06.000Z,1022.89
2019-06-01T12:57:06.000Z,1022.84
2019-06-01T12:58:05.000Z,1022.89
2019-06-01T12:59:02.000Z,1022.95
2019-06-01T13:00:01.000Z,1022.85
2019-06-01T13:01:00.000Z,1022.84
2019-06-01T13:01:59.000Z,1022.82
2019-06-01T13:02:57.000Z,1022.83
2019-06-01T13:03:56.000Z,1022.75
2019-06-01T13:04:54.000Z,1022.82
2019-06-01T13:05:53.000Z,1022.79
2019-06-01T13:06:52.000Z,1022.72
2019-06-01T13:07:50.000Z,1022.75
2019-06-01T13:08:50.000Z,1022.81
2019-06-01T13:10:47.000Z,1022.68
2019-06-01T13:11:46.000Z,1022.71
2019-06-01T13:12:44.000Z,1022.67
2019-06-01T13:13:44.000Z,1022.64
2019-06-01T13:14:41.000Z,1022.59
2019-06-01T13:15:40.000Z,1022.63
2019-06-01T13:16:40.000Z,1022.59
2019-06-01T13:17:38.000Z,1022.64
2019-06-01T13:18:37.000Z,1022.66
2019-06-01T13:19:35.000Z,1022.59
2019-06-01T13:20:35.000Z,1022.54
2019-06-01T13:21:33.000Z,1022.58
2019-06-01T13:22:31.000Z,1022.58
2019-06-01T13:23:30.000Z,1022.58
2019-06-01T13:24:29.000Z,1022.53
2019-06-01T13:25:27.000Z,1022.57
2019-06-01T13:26:26.000Z,1022.58
2019-06-01T13:27:25.000Z,1022.58
2019-06-01T13:28:24.000Z,1022.52
2019-06-01T13:29:23.000Z,1022.55
2019-06-01T13:30:21.000Z,1022.59
2019-06-01T13:31:20.000Z,1022.57
2019-06-01T13:32:19.000Z,1022.53
2019-06-01T13:33:17.000Z,1022.54
2019-06-01T13:34:16.000Z,1022.57
2019-06-01T13:35:15.000Z,1022.45
2019-06-01T13:36:13.000Z,1022.53
2019-06-01T13:37:13.000Z,1022.50
2019-06-01T13:38:12.000Z,1022.48
2019-06-01T13:40:08.000Z,1022.59
2019-06-01T13:41:08.000Z,1022.45
2019-06-01T13:42:06.000Z,1022.45
2019-06-01T13:43:06.000Z,1022.46
2019-06-01T13:44:03.000Z,1022.47
2019-06-01T13:45:02.000Z,1022.42
2019-06-01T13:46:01.000Z,1022.45
2019-06-01T13:47:00.000Z,1022.44
2019-06-01T13:47:58.000Z,1022.38
2019-06-01T13:48:57.000Z,1022.36
2019-06-01T13:49:57.000Z,1022.37
2019-06-01T13:50:56.000Z,1022.38
2019-06-01T13:51:55.000Z,1022.36
2019-06-01T13:52:52.000Z,1022.29
2019-06-01T13:53:52.000Z,1022.38
2019-06-01T13:54:50.000Z,1022.35
2019-06-01T13:55:49.000Z,1022.29
2019-06-01T13:56:48.000Z,1022.32
2019-06-01T13:57:47.000Z,1022.35
2019-06-01T13:58:46.000Z,1022.23
2019-06-01T14:00:43.000Z,1022.29
2019-06-01T14:01:41.000Z,1022.25
2019-06-01T14:02:41.000Z,1022.23
2019-06-01T14:03:39.000Z,1022.27
2019-06-01T14:04:37.000Z,1022.17
2019-06-01T14:05:36.000Z,1022.25
2019-06-01T14:06:35.000Z,1022.24
2019-06-01T14:07:33.000Z,1022.20
2019-06-01T14:08:32.000Z,1022.24
2019-06-01T14:09:31.000Z,1022.22
2019-06-01T14:10:29.000Z,1022.22
2019-06-01T14:11:28.000Z,1022.24
2019-06-01T14:12:28.000Z,1022.17
2019-06-01T14:13:26.000Z,1022.20
2019-06-01T14:14:25.000Z,1022.17
2019-06-01T14:15:23.000Z,1022.18
2019-06-01T14:16:23.000Z,1022.16
2019-06-01T14:17:22.000Z,1022.24
2019-06-01T14:18:20.000Z,1022.17
2019-06-01T14:19:19.000Z,1022.16
2019-06-01T14:20:16.000Z,1022.10
2019-06-01T14:21:16.000Z,1022.06
2019-06-01T14:22:15.000Z,1022.11
2019-06-01T14:23:12.000Z,1022.13
2019-06-01T14:24:11.000Z,1022.05
2019-06-01T14:25:10.000Z,1022.02
2019-06-01T14:27:08.000Z,1021.98
2019-06-01T14:28:07.000Z,1021.99
2019-06-01T14:29:05.000Z,1022.01
2019-06-01T14:30:04.000Z,1022.01
2019-06-01T14:31:02.000Z,1021.98
2019-06-01T14:32:01.000Z,1021.92
2019-06-01T14:32:59.000Z,1022.01
2019-06-01T14:33:59.000Z,1021.99
2019-06-01T14:34:57.000Z,1021.99
2019-06-01T14:35:55.000Z,1022.00
2019-06-01T14:36:55.000Z,1021.99
2019-06-01T14:37:54.000Z,1021.97
2019-06-01T14:38:52.000Z,1021.94
2019-06-01T14:39:50.000Z,1021.92
2019-06-01T14:40:50.000Z,1021.95
2019-06-01T14:41:48.000Z,1021.95
2019-06-01T14:42:46.000Z,1021.92
2019-06-01T14:43:46.000Z,1021.88
2019-06-01T14:44:44.000Z,1021.83
2019-06-01T14:45:43.000Z,1021.86
2019-06-01T14:46:41.000Z,1021.89
2019-06-01T14:47:41.000Z,1021.83
2019-06-01T14:48:38.000Z,1021.89
2019-06-01T14:49:37.000Z,1021.88
2019-06-01T14:50:37.000Z,1021.86
2019-06-01T14:51:35.000Z,1021.93
2019-06-01T14:52:33.000Z,1021.78
2019-06-01T14:53:33.000Z,1021.85
2019-06-01T14:54:31.000Z,1021.83
2019-06-01T14:55:30.000Z,1021.86
2019-06-01T14:56:28.000Z,1021.87
2019-06-01T14:57:26.000Z,1021.83
2019-06-01T14:58:25.000Z,1021.78
2019-06-01T14:59:25.000Z,1021.75
2019-06-01T15:00:24.000Z,1021.84
2019-06-01T15:01:21.000Z,1021.76
2019-06-01T15:02:19.000Z,1021.78
2019-06-01T15:03:18.000Z,1021.81
2019-06-01T15:04:17.000Z,1021.77
2019-06-01T15:05:15.000Z,1021.75
2019-06-01T15:06:14.000Z,1021.75
2019-06-01T15:07:13.000Z,1021.70
2019-06-01T15:08:12.000Z,1021.65
2019-06-01T15:10:09.000Z,1021.64
2019-06-01T15:11:09.000Z,1021.64
2019-06-01T15:12:06.000Z,1021.62
2019-06-01T15:13:06.000Z,1021.55
2019-06-01T15:14:04.000Z,1021.55
2019-06-01T15:15:02.000Z,1021.59
2019-06-01T15:16:01.000Z,1021.50
2019-06-01T15:16:59.000Z,1021.54
2019-06-01T15:17:59.000Z,1021.56
2019-06-01T15:18:58.000Z,1021.56
2019-06-01T15:19:56.000Z,1021.52
2019-06-01T15:20:55.000Z,1021.49
2019-06-01T15:21:53.000Z,1021.57
2019-06-01T15:22:53.000Z,1021.48
2019-06-01T15:23:52.000Z,1021.41
2019-06-01T15:24:49.000Z,1021.50
2019-06-01T15:25:48.000Z,1021.53
2019-06-01T15:26:47.000Z,1021.51
2019-06-01T15:27:45.000Z,1021.45
2019-06-01T15:28:44.000Z,1021.50
2019-06-01T15:29:43.000Z,1021.44
2019-06-01T15:30:43.000Z,1021.46
2019-06-01T15:31:41.000Z,1021.48
2019-06-01T15:32:39.000Z,1021.39
2019-06-01T15:33:38.000Z,1021.38
2019-06-01T15:34:36.000Z,1021.40
2019-06-01T15:35:36.000Z,1021.40
2019-06-01T15:36:34.000Z,1021.41
2019-06-01T15:37:34.000Z,1021.38
2019-06-01T15:38:31.000Z,1021.38
2019-06-01T15:39:31.000Z,1021.37
2019-06-01T15:40:29.000Z,1021.33
2019-06-01T15:41:27.000Z,1021.36
2019-06-01T15:42:26.000Z,1021.32
2019-06-01T15:43:24.000Z,1021.24
2019-06-01T15:44:23.000Z,1021.32
2019-06-01T15:45:22.000Z,1021.29
2019-06-01T15:46:20.000Z,1021.39
2019-06-01T15:47:19.000Z,1021.32
2019-06-01T15:48:19.000Z,1021.31
2019-06-01T15:50:15.000Z,1021.28
2019-06-01T15:51:14.000Z,1021.35
2019-06-01T15:52:12.000Z,1021.33
2019-06-01T15:54:12.000Z,1021.23
2019-06-01T15:59:09.000Z,1021.26
2019-06-01T16:01:02.000Z,1021.35
2019-06-01T16:02:59.000Z,1021.32
2019-06-01T16:04:56.000Z,1021.28
2019-06-01T16:05:55.000Z,1021.27
2019-06-01T16:06:53.000Z,1021.28
2019-06-01T16:07:52.000Z,1021.21
2019-06-01T16:08:51.000Z,1021.22
2019-06-01T16:09:50.000Z,1021.21
2019-06-01T16:10:49.000Z,1021.24
2019-06-01T16:11:47.000Z,1021.21
2019-06-01T16:12:45.000Z,1021.22
2019-06-01T16:13:44.000Z,1021.21
2019-06-01T16:14:43.000Z,1021.15
2019-06-01T16:15:41.000Z,1021.13
2019-06-01T16:16:41.000Z,1021.16
2019-06-01T16:17:40.000Z,1021.14
2019-06-01T16:18:38.000Z,1021.20
2019-06-01T16:19:36.000Z,1021.12
2019-06-01T16:20:35.000Z,1021.26
2019-06-01T16:21:33.000Z,1021.22
2019-06-01T16:22:32.000Z,1021.12
2019-06-01T16:23:32.000Z,1021.12
2019-06-01T16:24:30.000Z,1021.16
2019-06-01T16:25:29.000Z,1021.15
2019-06-01T16:26:27.000Z,1021.08
2019-06-01T16:27:26.000Z,1021.17
2019-06-01T16:28:24.000Z,1021.10
2019-06-01T16:30:23.000Z,1021.11
2019-06-01T16:31:20.000Z,1021.07
2019-06-01T16:32:20.000Z,1021.11
2019-06-01T16:34:17.000Z,1021.02
2019-06-01T16:35:15.000Z,1021.13
2019-06-01T16:36:14.000Z,1021.13
2019-06-01T16:38:11.000Z,1021.00
2019-06-01T16:41:08.000Z,1021.04
2019-06-01T16:42:06.000Z,1020.99
2019-06-01T16:43:06.000Z,1020.95
2019-06-01T16:44:05.000Z,1020.91
2019-06-01T16:45:03.000Z,1021.08
2019-06-01T16:46:02.000Z,1020.92
2019-06-01T16:47:01.000Z,1020.83
2019-06-01T16:47:59.000Z,1020.88
2019-06-01T16:48:57.000Z,1020.94
2019-06-01T16:49:56.000Z,1020.89
2019-06-01T16:50:55.000Z,1020.87
2019-06-01T16:51:53.000Z,1020.93
2019-06-01T16:52:53.000Z,1020.95
2019-06-01T16:53:51.000Z,1020.94
2019-06-01T16:54:50.000Z,1020.91
2019-06-01T16:55:49.000Z,1020.93
2019-06-01T16:56:47.000Z,1020.97
2019-06-01T16:57:46.000Z,1020.93
2019-06-01T16:58:44.000Z,1021.01